Time;durP1;ratioP1;P1;durP2;ratioP2;P2;SDS_P1;SDS_P2;PMS_P1;PMS_P2;Temp;Humidity;BMP_temperature;BMP_pressure;BME280_temperature;BME280_humidity;BME280_pressure;Samples;Min_cycle;Max_cycle;Signal;HPM_P1;HPM_P2
2024/03/10 00:02:00;;;;;;;0.40;0.40;;;9.80;92.60;;;;;;10522322;28;20665;-75
2024/03/10 00:07:04;;;;;;;0.40;0.40;;;9.80;92.60;;;;;;10521212;28;20219;-75
2024/03/10 00:12:08;;;;;;;0.50;0.50;;;9.80;92.50;;;;;;10501527;28;20614;-75
2024/03/10 00:17:11;;;;;;;0.40;0.40;;;9.80;92.50;;;;;;10531999;28;20245;-76
2024/03/10 00:22:13;;;;;;;0.40;0.40;;;9.80;92.40;;;;;;10513879;28;20192;-75
2024/03/10 00:27:17;;;;;;;0.50;0.50;;;9.80;92.60;;;;;;10516260;28;20220;-76
2024/03/10 00:32:19;;;;;;;0.30;0.30;;;9.80;92.60;;;;;;10516353;28;20783;-75
2024/03/10 00:37:22;;;;;;;0.37;0.37;;;9.80;92.60;;;;;;10515260;28;20184;-75
2024/03/10 00:42:25;;;;;;;0.40;0.40;;;9.80;92.60;;;;;;10493905;28;20220;-75
2024/03/10 00:47:28;;;;;;;0.40;0.40;;;9.80;93.00;;;;;;10510210;28;20686;-75
2024/03/10 00:52:30;;;;;;;0.27;0.27;;;9.80;92.70;;;;;;10524415;28;20224;-75
2024/03/10 00:57:34;;;;;;;0.30;0.30;;;9.80;92.80;;;;;;10521360;28;20199;-75
2024/03/10 01:02:37;;;;;;;0.30;0.30;;;9.80;92.80;;;;;;10536883;28;20273;-75
2024/03/10 01:07:39;;;;;;;0.40;0.40;;;9.80;92.80;;;;;;10531746;28;20269;-75
2024/03/10 01:12:43;;;;;;;0.40;0.40;;;9.70;92.90;;;;;;10529241;28;20769;-75
2024/03/10 01:17:46;;;;;;;0.40;0.40;;;9.70;92.90;;;;;;10530330;28;20214;-74
2024/03/10 01:22:49;;;;;;;0.40;0.40;;;9.70;92.90;;;;;;10508935;28;20285;-75
2024/03/10 01:27:52;;;;;;;0.40;0.40;;;9.70;93.00;;;;;;10533553;28;20246;-75
2024/03/10 01:32:55;;;;;;;0.40;0.40;;;9.70;93.10;;;;;;10504841;28;20227;-75
2024/03/10 01:37:58;;;;;;;0.30;0.30;;;9.70;93.20;;;;;;10525698;28;20188;-76
2024/03/10 01:43:02;;;;;;;0.40;0.40;;;9.70;93.30;;;;;;10531434;28;20211;-74
2024/03/10 01:48:05;;;;;;;0.30;0.30;;;9.70;93.30;;;;;;10534661;28;20231;-75
2024/03/10 01:53:09;;;;;;;0.40;0.40;;;9.80;93.40;;;;;;10533426;28;20626;-75
2024/03/10 01:58:15;;;;;;;0.40;0.40;;;9.70;93.50;;;;;;10507595;28;20203;-75
2024/03/10 02:03:18;;;;;;;0.40;0.40;;;9.70;93.60;;;;;;10529116;28;20215;-75
2024/03/10 02:08:20;;;;;;;0.30;0.30;;;9.70;93.70;;;;;;10523749;28;20264;-75
2024/03/10 02:13:24;;;;;;;0.40;0.40;;;9.70;93.70;;;;;;10502615;28;20211;-75
2024/03/10 02:18:28;;;;;;;0.40;0.40;;;9.70;93.80;;;;;;10511754;28;20562;-74
2024/03/10 02:23:36;;;;;;;0.40;0.40;;;9.70;93.90;;;;;;10519871;28;20220;-75
2024/03/10 02:28:57;;;;;;;0.40;0.40;;;9.70;94.00;;;;;;10513031;28;20261;-75
2024/03/10 02:50:05;;;;;;;0.40;0.40;;;9.60;94.30;;;;;;10522759;28;20684;-75
2024/03/10 02:55:08;;;;;;;0.40;0.40;;;9.60;94.40;;;;;;10530327;28;20220;-75
2024/03/10 03:00:15;;;;;;;0.50;0.50;;;9.60;94.40;;;;;;10505827;28;20203;-75
2024/03/10 03:05:18;;;;;;;0.50;0.50;;;9.60;94.40;;;;;;10512009;28;20269;-75
2024/03/10 03:10:21;;;;;;;0.40;0.40;;;9.50;94.50;;;;;;10508342;28;20192;-73
2024/03/10 03:15:25;;;;;;;0.40;0.40;;;9.50;94.40;;;;;;10522352;28;20256;-75
2024/03/10 03:20:28;;;;;;;0.50;0.50;;;9.40;94.30;;;;;;10516810;28;20196;-74
2024/03/10 03:25:31;;;;;;;0.40;0.40;;;9.40;94.30;;;;;;10528428;28;20645;-75
2024/03/10 03:30:35;;;;;;;0.50;0.50;;;9.30;94.20;;;;;;10492558;28;20199;-75
2024/03/10 03:35:37;;;;;;;0.50;0.50;;;9.30;94.20;;;;;;10575299;22;20241;-81
2024/03/10 03:40:40;;;;;;;0.40;0.40;;;9.20;94.20;;;;;;10624205;27;20247;-81
2024/03/10 03:45:43;;;;;;;0.40;0.40;;;9.20;94.20;;;;;;10583508;27;20273;-81
2024/03/10 03:50:46;;;;;;;0.50;0.50;;;9.10;94.10;;;;;;10586634;28;20202;-81
2024/03/10 03:55:48;;;;;;;0.60;0.60;;;9.10;94.10;;;;;;10578979;28;20304;-81
2024/03/10 04:00:52;;;;;;;0.50;0.50;;;9.00;94.30;;;;;;10580252;28;20423;-81
2024/03/10 04:05:54;;;;;;;0.63;0.63;;;9.00;94.30;;;;;;10579717;28;20249;-81
2024/03/10 04:10:56;;;;;;;0.50;0.50;;;9.00;94.40;;;;;;10598518;28;20586;-82
2024/03/10 04:16:00;;;;;;;0.60;0.60;;;9.00;94.40;;;;;;10571067;28;20211;-81
2024/03/10 04:21:04;;;;;;;0.60;0.60;;;8.90;94.40;;;;;;10582523;28;20183;-81
2024/03/10 04:26:08;;;;;;;0.50;0.50;;;8.90;94.30;;;;;;10554877;28;20248;-81
2024/03/10 04:31:13;;;;;;;0.50;0.50;;;8.90;94.50;;;;;;10582374;28;20199;-81
2024/03/10 04:36:15;;;;;;;0.60;0.60;;;8.80;94.20;;;;;;10562713;28;20285;-81
2024/03/10 04:41:18;;;;;;;0.60;0.60;;;8.70;94.10;;;;;;10571644;28;20543;-81
2024/03/10 04:46:21;;;;;;;0.50;0.50;;;8.70;94.00;;;;;;10559347;28;20246;-80
2024/03/10 04:51:24;;;;;;;0.60;0.60;;;8.70;94.00;;;;;;10566315;28;20203;-81
2024/03/10 04:56:26;;;;;;;0.57;0.57;;;8.60;93.80;;;;;;10566133;28;20211;-80
2024/03/10 05:01:30;;;;;;;0.57;0.57;;;8.60;93.70;;;;;;10575231;28;20199;-80
2024/03/10 05:06:34;;;;;;;0.60;0.60;;;8.50;93.50;;;;;;10560004;28;20631;-81
2024/03/10 05:11:37;;;;;;;0.53;0.53;;;8.50;93.50;;;;;;10560138;28;20204;-81
2024/03/10 05:16:41;;;;;;;0.60;0.60;;;8.50;93.60;;;;;;10556698;28;20653;-81
2024/03/10 05:21:46;;;;;;;0.50;0.50;;;8.50;93.80;;;;;;10569153;28;20192;-81
2024/03/10 05:26:48;;;;;;;0.60;0.60;;;8.50;93.80;;;;;;10556345;28;20241;-81
2024/03/10 05:31:52;;;;;;;0.30;0.30;;;8.50;93.80;;;;;;10568047;28;20252;-81
2024/03/10 05:36:54;;;;;;;0.50;0.50;;;8.60;93.80;;;;;;10553540;28;20308;-80
2024/03/10 05:41:56;;;;;;;0.60;0.60;;;8.60;94.00;;;;;;10571769;28;20625;-81
2024/03/10 05:47:00;;;;;;;0.70;0.70;;;8.50;93.70;;;;;;10566286;28;20279;-81
2024/03/10 05:52:03;;;;;;;0.60;0.60;;;8.50;93.80;;;;;;10577392;28;20260;-81
2024/03/10 05:57:05;;;;;;;0.80;0.80;;;8.50;93.70;;;;;;10562939;28;20584;-81
2024/03/10 06:02:13;;;;;;;0.97;0.97;;;8.50;93.80;;;;;;10575725;28;20202;-80
2024/03/10 06:07:15;;;;;;;0.60;0.60;;;8.50;93.80;;;;;;10546091;28;20230;-81
2024/03/10 06:12:18;;;;;;;0.50;0.50;;;8.40;93.70;;;;;;10582104;28;20187;-81
2024/03/10 06:17:30;;;;;;;0.60;0.60;;;8.40;93.80;;;;;;10558379;28;20265;-81
2024/03/10 06:27:52;;;;;;;0.80;0.80;;;8.30;93.70;;;;;;10563828;28;20646;-82
2024/03/10 06:32:56;;;;;;;0.90;0.90;;;8.30;93.70;;;;;;10577208;28;20234;-81
2024/03/10 06:38:00;;;;;;;0.60;0.60;;;8.30;93.90;;;;;;10565273;28;20617;-81
2024/03/10 06:43:02;;;;;;;0.60;0.60;;;8.30;94.00;;;;;;10573066;28;20207;-81
2024/03/10 06:48:07;;;;;;;0.60;0.60;;;8.30;93.90;;;;;;10561766;28;20593;-81
2024/03/10 06:53:09;;;;;;;0.50;0.50;;;8.40;93.70;;;;;;10556341;28;20210;-81
2024/03/10 06:58:11;;;;;;;0.70;0.70;;;8.40;93.70;;;;;;10569177;28;20187;-81
2024/03/10 07:03:16;;;;;;;0.70;0.70;;;8.50;93.80;;;;;;10574048;28;20227;-81
2024/03/10 07:08:18;;;;;;;0.70;0.70;;;8.50;93.90;;;;;;10567460;28;20229;-81
2024/03/10 07:13:21;;;;;;;0.60;0.60;;;8.60;94.00;;;;;;10546359;28;20261;-81
2024/03/10 07:18:24;;;;;;;0.50;0.50;;;8.60;94.00;;;;;;10574601;28;20192;-81
2024/03/10 07:23:27;;;;;;;0.60;0.60;;;8.70;94.10;;;;;;10565809;28;20284;-81
2024/03/10 07:28:29;;;;;;;0.60;0.60;;;8.70;94.20;;;;;;10578227;28;20290;-81
2024/03/10 07:33:34;;;;;;;0.50;0.50;;;8.70;94.30;;;;;;10559159;28;20227;-82
2024/03/10 07:38:36;;;;;;;0.70;0.70;;;8.80;94.40;;;;;;10574361;28;20709;-81
2024/03/10 07:43:38;;;;;;;0.70;0.70;;;8.90;94.60;;;;;;10571231;28;20241;-81
2024/03/10 07:48:43;;;;;;;0.60;0.60;;;9.00;94.50;;;;;;10578694;28;20207;-81
2024/03/10 07:53:45;;;;;;;0.60;0.60;;;9.20;94.30;;;;;;10548594;28;20634;-81
2024/03/10 07:58:47;;;;;;;0.50;0.50;;;9.30;94.30;;;;;;10544914;28;20195;-82
2024/03/10 08:03:52;;;;;;;0.60;0.60;;;9.50;94.50;;;;;;10556835;28;20211;-81
2024/03/10 08:08:54;;;;;;;0.60;0.60;;;9.70;94.40;;;;;;10574499;28;20211;-81
2024/03/10 08:13:57;;;;;;;0.50;0.50;;;9.80;94.30;;;;;;10554471;28;20215;-82
2024/03/10 08:19:01;;;;;;;0.70;0.70;;;9.90;94.40;;;;;;10567869;28;20685;-81
2024/03/10 08:24:04;;;;;;;0.60;0.60;;;10.10;93.40;;;;;;10559595;28;20242;-81
2024/03/10 08:29:06;;;;;;;0.60;0.60;;;10.30;93.10;;;;;;10583886;28;20616;-82
2024/03/10 08:34:10;;;;;;;0.40;0.40;;;10.40;93.00;;;;;;10576055;28;20218;-81
2024/03/10 08:39:16;;;;;;;0.50;0.50;;;10.60;92.90;;;;;;10586232;28;20191;-82
2024/03/10 08:44:18;;;;;;;0.40;0.40;;;10.80;92.50;;;;;;10574154;28;20226;-82
2024/03/10 08:49:23;;;;;;;0.40;0.40;;;11.00;92.20;;;;;;10575318;28;20215;-82
2024/03/10 08:54:25;;;;;;;0.40;0.40;;;11.20;92.40;;;;;;10585920;28;20219;-82
2024/03/10 08:59:28;;;;;;;0.40;0.40;;;11.30;92.30;;;;;;10583722;28;20199;-82
2024/03/10 09:04:31;;;;;;;0.40;0.40;;;11.40;91.70;;;;;;10576799;28;20290;-81
2024/03/10 09:09:34;;;;;;;0.50;0.50;;;11.50;91.80;;;;;;10574073;28;20218;-82
2024/03/10 09:14:37;;;;;;;0.40;0.40;;;11.60;91.30;;;;;;10574982;28;20223;-82
2024/03/10 09:19:41;;;;;;;0.40;0.40;;;11.60;91.30;;;;;;10577351;28;20195;-82
2024/03/10 09:24:43;;;;;;;0.50;0.50;;;11.80;91.20;;;;;;10577342;28;20219;-82
2024/03/10 09:29:46;;;;;;;0.47;0.47;;;12.00;90.00;;;;;;10571700;28;20219;-82
2024/03/10 09:34:51;;;;;;;0.40;0.40;;;12.00;90.00;;;;;;10593888;22;20231;-75
2024/03/10 09:39:53;;;;;;;0.50;0.50;;;12.10;90.20;;;;;;10555411;28;20195;-75
2024/03/10 09:44:56;;;;;;;0.40;0.40;;;12.20;89.60;;;;;;10539225;28;20219;-75
2024/03/10 09:50:05;;;;;;;0.50;0.50;;;12.40;90.20;;;;;;10507361;28;20216;-75
2024/03/10 09:55:10;;;;;;;0.40;0.40;;;12.50;90.10;;;;;;10509729;28;20216;-75
2024/03/10 10:00:14;;;;;;;0.40;0.40;;;12.50;89.80;;;;;;10501133;28;20195;-75
2024/03/10 10:05:26;;;;;;;0.40;0.40;;;12.60;89.70;;;;;;10525494;28;20212;-75
2024/03/10 10:10:28;;;;;;;0.40;0.40;;;12.70;90.10;;;;;;10500393;28;20294;-75
2024/03/10 10:15:33;;;;;;;0.40;0.40;;;12.80;87.30;;;;;;10494456;28;20231;-76
2024/03/10 10:20:39;;;;;;;0.50;0.50;;;12.80;87.20;;;;;;10513401;28;20621;-75
2024/03/10 10:25:45;;;;;;;0.40;0.40;;;12.80;87.20;;;;;;10498889;28;20212;-75
2024/03/10 10:30:48;;;;;;;0.30;0.30;;;12.90;87.60;;;;;;10511101;28;20216;-75
2024/03/10 10:35:52;;;;;;;0.40;0.40;;;13.00;86.00;;;;;;10505320;28;20280;-75
2024/03/10 10:40:56;;;;;;;0.30;0.30;;;13.10;85.40;;;;;;10504721;28;20666;-75
2024/03/10 10:45:59;;;;;;;0.40;0.40;;;13.10;87.30;;;;;;10498034;28;20701;-75
2024/03/10 10:51:06;;;;;;;0.30;0.30;;;13.20;88.20;;;;;;10506417;28;20273;-76
2024/03/10 10:56:09;;;;;;;0.40;0.40;;;13.10;89.00;;;;;;10522280;28;20739;-75
2024/03/10 11:01:11;;;;;;;0.33;0.33;;;13.20;90.10;;;;;;10501189;28;20640;-75
2024/03/10 11:06:33;;;;;;;0.30;0.30;;;13.30;90.60;;;;;;10492102;28;20208;-77
2024/03/10 11:11:45;;;;;;;0.30;0.30;;;13.40;90.50;;;;;;10497086;28;20211;-75
2024/03/10 11:16:47;;;;;;;0.37;0.37;;;13.40;90.20;;;;;;10487161;28;20211;-75
2024/03/10 11:21:51;;;;;;;0.40;0.40;;;13.40;87.50;;;;;;10509444;28;20188;-76
2024/03/10 11:27:19;;;;;;;0.50;0.50;;;13.40;89.30;;;;;;10497192;28;20212;-76
2024/03/10 11:32:35;;;;;;;0.30;0.30;;;13.40;88.40;;;;;;10503208;28;20198;-76
2024/03/10 11:37:39;;;;;;;0.30;0.30;;;13.40;88.60;;;;;;10510084;28;20387;-76
2024/03/10 11:42:43;;;;;;;0.47;0.47;;;13.50;88.20;;;;;;10514362;28;20199;-77
2024/03/10 11:47:45;;;;;;;0.40;0.40;;;13.50;88.10;;;;;;10512777;28;20209;-75
2024/03/10 11:52:49;;;;;;;0.40;0.40;;;13.50;88.60;;;;;;10511256;28;20196;-75
2024/03/10 11:57:53;;;;;;;0.40;0.40;;;13.40;88.10;;;;;;10503823;28;20212;-76
2024/03/10 12:02:56;;;;;;;0.30;0.30;;;13.40;89.40;;;;;;10515099;28;20204;-76
2024/03/10 12:08:00;;;;;;;0.50;0.50;;;13.40;90.10;;;;;;10522248;28;20208;-75
2024/03/10 12:13:03;;;;;;;0.40;0.40;;;13.40;90.40;;;;;;10514806;28;20188;-75
2024/03/10 12:18:06;;;;;;;0.30;0.30;;;13.50;90.70;;;;;;10515744;28;20188;-75
2024/03/10 12:23:11;;;;;;;0.40;0.40;;;13.70;90.10;;;;;;10531834;28;20610;-75
2024/03/10 12:28:14;;;;;;;0.40;0.40;;;13.80;90.20;;;;;;10511376;28;20285;-75
2024/03/10 12:33:16;;;;;;;0.40;0.40;;;13.80;90.00;;;;;;10513833;28;20604;-75
2024/03/10 12:38:21;;;;;;;0.30;0.30;;;13.90;89.90;;;;;;10524587;28;20238;-75
2024/03/10 12:43:23;;;;;;;0.40;0.40;;;13.90;90.10;;;;;;10503339;28;20796;-75
2024/03/10 12:48:27;;;;;;;0.50;0.50;;;13.80;90.10;;;;;;10515153;28;20208;-75
2024/03/10 12:53:32;;;;;;;0.40;0.40;;;13.70;90.20;;;;;;10506726;28;20232;-75
2024/03/10 12:58:34;;;;;;;0.40;0.40;;;13.70;90.90;;;;;;10523097;28;20241;-75
2024/03/10 13:03:36;;;;;;;0.40;0.40;;;13.70;90.60;;;;;;10522802;28;20232;-74
2024/03/10 13:08:40;;;;;;;0.40;0.40;;;13.80;90.40;;;;;;10515660;28;20640;-75
2024/03/10 13:13:43;;;;;;;0.40;0.40;;;13.80;89.80;;;;;;10520875;28;20231;-75
2024/03/10 13:18:46;;;;;;;0.40;0.40;;;13.80;89.40;;;;;;10508495;28;20207;-74
2024/03/10 13:23:50;;;;;;;0.50;0.50;;;13.90;88.50;;;;;;10525181;28;20765;-75
2024/03/10 13:28:53;;;;;;;0.40;0.40;;;13.90;88.00;;;;;;10484656;28;20216;-75
2024/03/10 13:33:55;;;;;;;0.30;0.30;;;13.80;88.00;;;;;;10520479;28;20251;-75
2024/03/10 13:38:58;;;;;;;0.40;0.40;;;13.60;88.50;;;;;;10511529;28;20802;-75
2024/03/10 13:44:02;;;;;;;0.40;0.40;;;13.50;88.80;;;;;;10519042;28;20226;-74
2024/03/10 13:49:07;;;;;;;0.40;0.40;;;13.40;89.50;;;;;;10501411;28;20238;-74
2024/03/10 13:54:12;;;;;;;0.30;0.30;;;13.30;90.10;;;;;;10507916;28;20215;-76
2024/03/10 13:59:14;;;;;;;0.40;0.40;;;13.10;90.00;;;;;;10523779;28;20200;-75
2024/03/10 14:04:17;;;;;;;0.40;0.40;;;13.10;90.20;;;;;;10516129;28;20224;-75
2024/03/10 14:09:20;;;;;;;0.43;0.43;;;13.00;90.00;;;;;;10517892;28;20589;-74
2024/03/10 14:14:23;;;;;;;0.30;0.30;;;12.90;90.40;;;;;;10522879;28;20304;-75
2024/03/10 14:19:25;;;;;;;0.50;0.50;;;12.90;91.10;;;;;;10517861;28;20196;-76
2024/03/10 14:24:29;;;;;;;0.50;0.50;;;12.90;91.50;;;;;;10509999;28;20231;-75
2024/03/10 14:29:31;;;;;;;0.40;0.40;;;12.90;91.50;;;;;;10518714;28;20223;-75
2024/03/10 14:34:34;;;;;;;0.40;0.40;;;12.80;91.00;;;;;;10519303;28;20219;-74
2024/03/10 14:39:37;;;;;;;0.50;0.50;;;12.90;90.80;;;;;;10519717;28;20209;-75
2024/03/10 14:44:40;;;;;;;0.50;0.50;;;12.90;90.70;;;;;;10513799;28;20231;-75
2024/03/10 14:49:42;;;;;;;0.50;0.50;;;12.90;90.30;;;;;;10502681;28;20227;-75
2024/03/10 14:54:46;;;;;;;0.50;0.50;;;12.90;89.80;;;;;;10520129;28;20261;-75
2024/03/10 14:59:48;;;;;;;0.50;0.50;;;13.00;90.00;;;;;;10525659;28;20184;-75
2024/03/10 15:04:51;;;;;;;0.50;0.50;;;13.00;90.00;;;;;;10509011;28;20223;-75
2024/03/10 15:09:57;;;;;;;0.60;0.60;;;13.00;89.90;;;;;;10517858;28;20230;-75
2024/03/10 15:14:59;;;;;;;0.40;0.40;;;13.00;89.80;;;;;;10513737;28;20240;-75
2024/03/10 15:20:02;;;;;;;0.60;0.60;;;12.90;89.10;;;;;;10515876;28;20722;-75
2024/03/10 15:25:10;;;;;;;0.50;0.50;;;12.90;89.30;;;;;;10516607;28;20224;-75
2024/03/10 15:30:14;;;;;;;0.40;0.40;;;12.80;89.90;;;;;;10516989;28;20246;-74
2024/03/10 15:35:17;;;;;;;0.43;0.43;;;12.80;89.60;;;;;;10502315;28;20261;-75
2024/03/10 15:40:21;;;;;;;0.50;0.50;;;12.70;90.00;;;;;;10497622;28;20219;-75
2024/03/10 15:45:23;;;;;;;0.50;0.50;;;12.70;90.40;;;;;;10485369;28;20220;-77
2024/03/10 15:50:29;;;;;;;0.50;0.50;;;12.70;90.00;;;;;;10504400;28;20220;-75
2024/03/10 15:55:33;;;;;;;0.40;0.40;;;12.60;90.00;;;;;;10507056;28;20230;-75
2024/03/10 16:00:35;;;;;;;0.50;0.50;;;12.60;90.20;;;;;;10521748;28;20260;-77
2024/03/10 16:05:45;;;;;;;0.50;0.50;;;12.50;90.50;;;;;;10520617;28;20653;-76
2024/03/10 16:10:50;;;;;;;0.50;0.50;;;12.50;90.10;;;;;;10511283;28;20208;-76
2024/03/10 16:15:52;;;;;;;0.50;0.50;;;12.40;90.70;;;;;;10519004;28;20641;-76
2024/03/10 16:20:55;;;;;;;0.50;0.50;;;12.30;91.00;;;;;;10515083;28;20196;-76
2024/03/10 16:25:58;;;;;;;0.50;0.50;;;12.30;90.70;;;;;;10496647;28;20219;-76
2024/03/10 16:31:02;;;;;;;0.50;0.50;;;12.30;90.50;;;;;;10491702;28;20221;-74
2024/03/10 16:36:05;;;;;;;0.50;0.50;;;12.20;91.10;;;;;;10514761;28;20235;-76
2024/03/10 16:41:09;;;;;;;0.40;0.40;;;12.10;91.40;;;;;;10512073;28;20228;-76
2024/03/10 16:46:11;;;;;;;0.50;0.50;;;12.10;91.40;;;;;;10515987;28;20208;-76
2024/03/10 16:51:14;;;;;;;0.40;0.40;;;12.10;91.30;;;;;;10517396;28;20292;-76
2024/03/10 16:56:21;;;;;;;0.50;0.50;;;12.00;91.30;;;;;;10498005;28;20226;-76
2024/03/10 17:01:26;;;;;;;0.40;0.40;;;12.00;91.60;;;;;;10499095;28;20188;-77
2024/03/10 17:06:31;;;;;;;0.50;0.50;;;11.90;91.90;;;;;;10505529;28;20232;-76
2024/03/10 17:11:35;;;;;;;0.50;0.50;;;11.90;92.10;;;;;;10500480;28;20231;-76
2024/03/10 17:16:37;;;;;;;0.50;0.50;;;11.90;92.40;;;;;;10488560;28;20215;-76
2024/03/10 17:21:39;;;;;;;0.40;0.40;;;11.80;92.50;;;;;;10483924;28;20253;-76
2024/03/10 17:26:44;;;;;;;0.50;0.50;;;11.80;92.50;;;;;;10514041;28;20844;-75
2024/03/10 17:31:46;;;;;;;0.50;0.50;;;11.70;92.80;;;;;;10504544;28;20212;-76
2024/03/10 17:36:48;;;;;;;0.50;0.50;;;11.70;93.10;;;;;;10515207;28;20232;-78
2024/03/10 17:41:52;;;;;;;0.50;0.50;;;11.70;93.40;;;;;;10498692;28;20188;-77
2024/03/10 17:46:55;;;;;;;0.50;0.50;;;11.70;93.30;;;;;;10507479;28;20238;-78
2024/03/10 17:51:58;;;;;;;0.40;0.40;;;11.70;93.40;;;;;;10508573;28;20227;-77
2024/03/10 17:57:02;;;;;;;0.50;0.50;;;11.70;93.40;;;;;;10512680;28;20716;-77
2024/03/10 18:02:05;;;;;;;0.40;0.40;;;11.60;93.60;;;;;;10514674;28;20200;-76
2024/03/10 18:07:07;;;;;;;0.50;0.50;;;11.50;94.00;;;;;;10503536;28;20222;-76
2024/03/10 18:12:11;;;;;;;0.57;0.57;;;11.50;94.40;;;;;;10492504;28;20212;-76
2024/03/10 18:17:14;;;;;;;0.50;0.50;;;11.50;94.60;;;;;;10482675;28;20266;-76
2024/03/10 18:22:16;;;;;;;0.50;0.50;;;11.40;95.30;;;;;;10509575;28;20196;-75
2024/03/10 18:27:20;;;;;;;0.50;0.50;;;11.30;95.90;;;;;;10497602;28;20225;-75
2024/03/10 18:32:23;;;;;;;0.70;0.70;;;11.10;96.40;;;;;;10506137;28;20224;-77
2024/03/10 18:37:25;;;;;;;0.90;0.90;;;10.90;97.50;;;;;;10474841;28;20607;-77
2024/03/10 18:42:30;;;;;;;1.17;1.17;;;10.70;98.20;;;;;;10504976;28;20677;-78
2024/03/10 18:47:33;;;;;;;1.60;1.60;;;10.60;99.10;;;;;;10494142;28;20232;-78
2024/03/10 18:52:35;;;;;;;2.70;2.70;;;10.40;99.90;;;;;;10506223;28;20285;-76
2024/03/10 18:57:40;;;;;;;2.27;2.27;;;10.20;99.90;;;;;;10496374;28;20219;-77
2024/03/10 19:02:42;;;;;;;2.90;2.90;;;10.10;99.90;;;;;;10502655;28;20207;-77
2024/03/10 19:07:45;;;;;;;2.80;2.80;;;10.00;99.90;;;;;;10485253;28;20668;-76
2024/03/10 19:12:49;;;;;;;3.03;3.03;;;9.90;99.90;;;;;;10492181;28;20582;-79
2024/03/10 19:17:56;;;;;;;2.90;2.90;;;9.80;99.90;;;;;;10504026;28;20688;-75
2024/03/10 19:23:02;;;;;;;3.80;3.80;;;9.70;99.90;;;;;;10486944;28;20192;-76
2024/03/10 19:28:08;;;;;;;4.60;4.60;;;9.60;99.90;;;;;;10506789;28;20199;-78
2024/03/10 19:33:10;;;;;;;4.20;4.20;;;9.50;99.90;;;;;;10498398;28;20229;-77
2024/03/10 19:38:13;;;;;;;4.70;4.70;;;9.50;99.90;;;;;;10501607;28;20204;-77
2024/03/10 19:43:16;;;;;;;4.50;4.50;;;9.30;99.90;;;;;;10488309;28;20261;-76
2024/03/10 19:48:19;;;;;;;4.80;4.80;;;9.30;99.90;;;;;;10495617;28;20755;-76
2024/03/10 19:53:21;;;;;;;4.70;4.70;;;9.20;99.90;;;;;;10496419;28;20221;-76
2024/03/10 19:58:25;;;;;;;4.73;4.73;;;9.00;99.90;;;;;;10506529;28;20204;-77
2024/03/10 20:03:28;;;;;;;4.80;4.80;;;8.90;99.90;;;;;;10499204;28;20223;-76
2024/03/10 20:08:30;;;;;;;4.90;4.90;;;8.90;99.90;;;;;;10496335;28;20208;-77
2024/03/10 20:13:34;;;;;;;5.33;5.33;;;8.90;99.90;;;;;;10485064;28;20220;-77
2024/03/10 20:18:36;;;;;;;4.80;4.80;;;8.80;99.90;;;;;;10503599;28;20806;-76
2024/03/10 20:23:39;;;;;;;4.37;4.37;;;8.80;99.90;;;;;;10502139;28;20219;-77
2024/03/10 20:28:43;;;;;;;4.57;4.57;;;8.70;99.90;;;;;;10501483;28;20212;-77
2024/03/10 20:33:45;;;;;;;4.60;4.60;;;8.60;99.90;;;;;;10501390;28;20443;-77
2024/03/10 20:38:48;;;;;;;3.83;3.83;;;8.60;99.90;;;;;;10508375;28;20204;-77
2024/03/10 20:43:51;;;;;;;4.00;4.00;;;8.60;99.90;;;;;;10518004;28;20219;-77
2024/03/10 20:48:54;;;;;;;4.67;4.67;;;8.50;99.90;;;;;;10487816;28;20597;-76
2024/03/10 20:53:56;;;;;;;4.30;4.30;;;8.50;99.90;;;;;;10502343;28;20222;-77
2024/03/10 20:59:00;;;;;;;3.80;3.80;;;8.50;99.90;;;;;;10506574;28;20192;-77
2024/03/10 21:04:03;;;;;;;4.40;4.40;;;8.50;99.90;;;;;;10505013;28;20220;-76
2024/03/10 21:09:06;;;;;;;3.90;3.90;;;8.40;99.90;;;;;;10501919;28;20204;-77
2024/03/10 21:14:09;;;;;;;4.07;4.07;;;8.40;99.90;;;;;;10500323;28;20224;-76
2024/03/10 21:19:12;;;;;;;4.30;4.30;;;8.50;99.90;;;;;;10507984;28;20197;-77
2024/03/10 21:24:15;;;;;;;3.90;3.90;;;8.60;99.90;;;;;;10495901;28;20337;-78
2024/03/10 21:29:19;;;;;;;4.03;4.03;;;8.60;99.90;;;;;;10501579;28;20666;-77
2024/03/10 21:34:22;;;;;;;3.07;3.07;;;8.60;99.90;;;;;;10514299;28;20228;-77
2024/03/10 21:39:25;;;;;;;2.50;2.50;;;8.70;99.90;;;;;;10558246;22;20235;-84
2024/03/10 21:44:29;;;;;;;2.53;2.53;;;8.80;99.90;;;;;;10564316;28;20221;-82
2024/03/10 21:49:31;;;;;;;2.40;2.40;;;8.80;99.90;;;;;;10530430;28;20216;-83
2024/03/10 21:54:34;;;;;;;2.90;2.90;;;8.80;99.90;;;;;;10524633;28;20700;-83
2024/03/10 21:59:38;;;;;;;2.10;2.10;;;8.80;99.90;;;;;;10542316;28;20246;-82
2024/03/10 22:04:40;;;;;;;2.10;2.10;;;8.90;99.90;;;;;;10535075;28;20196;-81
2024/03/10 22:09:43;;;;;;;2.30;2.30;;;8.90;99.90;;;;;;10531059;28;20211;-80
2024/03/10 22:14:47;;;;;;;2.00;2.00;;;8.90;99.90;;;;;;10541678;28;20216;-80
2024/03/10 22:19:49;;;;;;;1.50;1.50;;;9.00;99.90;;;;;;10493989;28;20224;-82
2024/03/10 22:24:52;;;;;;;1.30;1.30;;;9.00;99.90;;;;;;10543599;28;20200;-80
2024/03/10 22:29:56;;;;;;;1.47;1.47;;;9.00;99.90;;;;;;10512379;28;20220;-81
2024/03/10 22:34:58;;;;;;;0.80;0.80;;;9.10;99.90;;;;;;10544834;28;20277;-80
2024/03/10 22:40:01;;;;;;;1.10;1.10;;;9.00;99.90;;;;;;10511294;28;20231;-81
2024/03/10 22:45:06;;;;;;;1.00;1.00;;;9.00;99.90;;;;;;10517471;28;20184;-81
2024/03/10 22:50:09;;;;;;;1.20;1.20;;;9.00;99.90;;;;;;10531239;28;20263;-80
2024/03/10 22:55:13;;;;;;;1.40;1.40;;;9.00;99.90;;;;;;10520132;28;20215;-81
2024/03/10 23:00:36;;;;;;;0.80;0.80;;;9.00;99.90;;;;;;10523432;28;20217;-79
2024/03/10 23:05:40;;;;;;;1.00;1.00;;;9.10;99.90;;;;;;10556541;28;20291;-81
2024/03/10 23:10:46;;;;;;;1.20;1.20;;;9.10;99.90;;;;;;10543699;28;20280;-82
2024/03/10 23:15:50;;;;;;;1.10;1.10;;;9.00;99.90;;;;;;10511572;28;20200;-81
2024/03/10 23:20:53;;;;;;;0.70;0.70;;;9.00;99.90;;;;;;10525703;28;20227;-81
2024/03/10 23:25:55;;;;;;;0.80;0.80;;;9.10;99.90;;;;;;10483448;28;20212;-80
2024/03/10 23:30:59;;;;;;;1.00;1.00;;;9.10;99.90;;;;;;10529202;28;20204;-81
2024/03/10 23:36:03;;;;;;;0.90;0.90;;;9.10;99.90;;;;;;10538079;28;20200;-81
2024/03/10 23:41:05;;;;;;;0.80;0.80;;;9.10;99.90;;;;;;10515970;28;20204;-81
2024/03/10 23:46:09;;;;;;;0.90;0.90;;;9.10;99.90;;;;;;10516732;28;20223;-81
2024/03/10 23:51:11;;;;;;;0.80;0.80;;;9.20;99.90;;;;;;10531896;28;20261;-81
2024/03/10 23:56:14;;;;;;;0.70;0.70;;;9.20;99.90;;;;;;10518362;28;20200;-81
